createdAt,value
2022-08-22T00:03:02.738Z,22.30
2022-08-22T00:10:22.819Z,22.18
2022-08-22T00:16:08.484Z,18.64
2022-08-22T00:21:25.250Z,18.57
2022-08-22T00:28:24.698Z,18.45
2022-08-22T00:33:34.084Z,18.29
2022-08-22T00:38:40.271Z,18.42
2022-08-22T00:46:36.817Z,18.43
2022-08-22T00:52:17.629Z,18.33
2022-08-22T00:58:09.974Z,18.12
2022-08-22T01:04:49.745Z,18.10
2022-08-22T01:16:30.845Z,18.13
2022-08-22T01:22:11.492Z,18.08
2022-08-22T01:27:48.736Z,18.19
2022-08-22T01:35:01.292Z,18.18
2022-08-22T01:40:37.127Z,18.03
2022-08-22T01:50:00.276Z,17.93
2022-08-22T01:55:29.187Z,17.66
2022-08-22T02:00:50.640Z,17.68
2022-08-22T02:06:01.945Z,17.62
2022-08-22T02:11:07.321Z,17.66
2022-08-22T02:16:45.677Z,17.56
2022-08-22T02:25:14.444Z,17.36
2022-08-22T02:30:20.136Z,17.19
2022-08-22T02:35:34.050Z,16.99
2022-08-22T02:40:40.815Z,16.91
2022-08-22T02:46:04.878Z,16.93
2022-08-22T02:52:16.840Z,16.89
2022-08-22T02:57:39.601Z,16.77
2022-08-22T03:06:31.930Z,16.74
2022-08-22T03:11:38.762Z,16.84
2022-08-22T03:16:50.073Z,17.00
2022-08-22T03:22:10.340Z,17.02
2022-08-22T03:27:32.059Z,17.09
2022-08-22T03:32:58.370Z,17.09
2022-08-22T03:38:19.622Z,17.03
2022-08-22T03:45:14.949Z,17.01
2022-08-22T03:52:05.445Z,17.02
2022-08-22T03:58:23.916Z,17.03
2022-08-22T04:05:34.548Z,16.63
2022-08-22T04:11:07.310Z,16.40
2022-08-22T04:19:53.753Z,16.25
2022-08-22T04:25:07.761Z,16.16
2022-08-22T04:30:32.657Z,16.28
2022-08-22T04:35:54.500Z,16.25
2022-08-22T04:41:07.755Z,16.13
2022-08-22T04:46:16.581Z,16.01
2022-08-22T04:51:34.816Z,15.89
2022-08-22T04:57:15.935Z,15.73
2022-08-22T05:02:26.834Z,15.84
2022-08-22T05:07:36.770Z,16.02
2022-08-22T05:12:44.326Z,16.23
2022-08-22T05:17:49.026Z,16.51
2022-08-22T05:22:56.084Z,16.69
2022-08-22T05:28:27.976Z,16.98
2022-08-22T05:33:58.752Z,17.27
2022-08-22T05:39:04.329Z,17.51
2022-08-22T05:44:22.779Z,17.89
2022-08-22T05:49:38.175Z,18.23
2022-08-22T05:54:52.869Z,18.45
2022-08-22T06:00:03.289Z,18.76
2022-08-22T06:05:12.244Z,19.01
2022-08-22T06:10:28.782Z,18.95
2022-08-22T06:15:43.094Z,19.19
2022-08-22T06:20:55.706Z,19.40
2022-08-22T06:25:59.806Z,19.71
2022-08-22T06:31:03.366Z,19.78
2022-08-22T06:36:29.767Z,19.93
2022-08-22T06:41:35.532Z,19.88
2022-08-22T06:46:37.504Z,19.76
2022-08-22T06:51:38.890Z,20.06
2022-08-22T06:56:43.293Z,20.43
2022-08-22T07:02:02.838Z,20.66
2022-08-22T07:07:04.796Z,20.93
2022-08-22T07:12:15.892Z,20.99
2022-08-22T07:17:24.530Z,20.46
2022-08-22T07:22:29.983Z,20.70
2022-08-22T07:30:38.588Z,20.79
2022-08-22T07:35:53.205Z,21.45
2022-08-22T07:41:21.697Z,21.14
2022-08-22T07:47:04.487Z,21.58
2022-08-22T07:52:11.995Z,21.22
2022-08-22T07:57:21.058Z,21.14
2022-08-22T08:02:23.807Z,21.31
2022-08-22T08:07:27.289Z,21.57
2022-08-22T08:12:38.319Z,21.29
2022-08-22T08:17:39.876Z,21.88
2022-08-22T08:22:45.351Z,22.05
2022-08-22T08:28:04.930Z,22.20
2022-08-22T08:33:25.195Z,22.83
2022-08-22T08:38:35.054Z,22.74
2022-08-22T08:45:56.501Z,22.70
2022-08-22T08:53:50.233Z,22.84
2022-08-22T08:59:33.390Z,23.16
2022-08-22T09:11:43.693Z,23.43
2022-08-22T09:30:27.571Z,23.83
2022-08-22T09:38:48.256Z,23.71
2022-08-22T09:44:39.670Z,24.51
2022-08-22T09:50:21.324Z,24.90
2022-08-22T09:56:11.751Z,24.52
2022-08-22T10:02:53.264Z,25.21
2022-08-22T10:08:20.029Z,25.57
2022-08-22T10:13:46.118Z,24.76
2022-08-22T10:19:10.329Z,25.33
2022-08-22T10:26:58.961Z,25.56
2022-08-22T10:33:45.617Z,26.25
2022-08-22T10:38:54.442Z,26.42
2022-08-22T10:44:19.821Z,26.66
2022-08-22T10:49:31.708Z,25.91
2022-08-22T10:56:31.622Z,26.24
2022-08-22T11:01:42.401Z,27.07
2022-08-22T11:06:52.089Z,26.64
2022-08-22T11:13:36.198Z,26.59
2022-08-22T11:22:10.056Z,26.66
2022-08-22T11:27:49.070Z,27.32
2022-08-22T11:40:01.037Z,27.70
2022-08-22T11:45:05.323Z,27.61
2022-08-22T11:50:30.326Z,27.72
2022-08-22T11:57:12.522Z,27.88
2022-08-22T12:02:28.858Z,28.53
2022-08-22T12:07:38.586Z,28.05
2022-08-22T12:13:06.958Z,28.58
2022-08-22T12:20:15.018Z,28.04
2022-08-22T12:27:07.801Z,27.18
2022-08-22T12:33:44.421Z,27.22
2022-08-22T12:39:25.668Z,27.48
2022-08-22T12:51:21.884Z,28.19
2022-08-22T12:56:53.570Z,27.30
2022-08-22T13:01:59.951Z,27.93
2022-08-22T13:07:18.538Z,28.19
2022-08-22T13:12:28.730Z,27.44
2022-08-22T13:17:32.020Z,27.94
2022-08-22T13:22:35.187Z,28.51
2022-08-22T13:27:51.246Z,28.45
2022-08-22T13:33:08.936Z,28.52
2022-08-22T13:38:25.479Z,27.80
2022-08-22T13:43:37.029Z,28.61
2022-08-22T13:48:51.381Z,27.33
2022-08-22T13:54:11.148Z,27.72
2022-08-22T13:59:47.117Z,27.51
2022-08-22T14:04:52.930Z,27.85
2022-08-22T14:10:14.675Z,28.52
2022-08-22T14:15:22.731Z,28.21
2022-08-22T14:20:32.397Z,27.21
2022-08-22T14:25:39.166Z,28.27
2022-08-22T14:31:06.726Z,28.71
2022-08-22T14:36:20.458Z,29.40
2022-08-22T14:41:56.299Z,29.69
2022-08-22T14:47:04.314Z,29.27
2022-08-22T14:52:42.842Z,29.14
2022-08-22T14:57:50.965Z,28.06
2022-08-22T15:03:05.015Z,28.22
2022-08-22T15:08:07.784Z,28.64
2022-08-22T15:13:10.130Z,28.92
2022-08-22T15:18:53.607Z,28.89
2022-08-22T15:24:11.397Z,28.36
2022-08-22T15:29:20.356Z,27.87
2022-08-22T15:34:37.462Z,28.19
2022-08-22T15:40:12.179Z,28.46
2022-08-22T15:45:29.966Z,28.55
2022-08-22T15:50:54.975Z,27.44
2022-08-22T15:56:32.336Z,27.61
2022-08-22T16:01:42.723Z,27.26
2022-08-22T16:06:57.396Z,27.22
2022-08-22T16:12:03.375Z,27.13
2022-08-22T16:17:38.877Z,27.45
2022-08-22T16:26:14.740Z,26.95
2022-08-22T16:31:31.215Z,26.46
2022-08-22T16:41:02.444Z,26.35
2022-08-22T16:46:28.192Z,26.56
2022-08-22T16:51:37.204Z,26.55
2022-08-22T16:57:05.219Z,26.36
2022-08-22T17:02:49.576Z,26.32
2022-08-22T17:09:40.398Z,26.29
2022-08-22T17:16:39.197Z,26.08
2022-08-22T17:21:55.134Z,25.98
2022-08-22T17:27:14.816Z,25.65
2022-08-22T17:32:35.008Z,25.47
2022-08-22T17:38:00.423Z,25.46
2022-08-22T17:43:33.474Z,25.47
2022-08-22T17:49:12.061Z,25.29
2022-08-22T17:54:29.834Z,25.28
2022-08-22T17:59:37.915Z,25.23
2022-08-22T18:04:49.796Z,25.04
2022-08-22T18:10:08.221Z,24.98
2022-08-22T18:15:24.753Z,24.91
2022-08-22T18:20:39.116Z,24.75
2022-08-22T18:25:45.164Z,24.74
2022-08-22T18:30:58.817Z,24.58
2022-08-22T18:36:19.253Z,24.47
2022-08-22T18:41:31.454Z,24.42
2022-08-22T18:46:45.685Z,24.18
2022-08-22T18:58:40.707Z,24.11
2022-08-22T19:07:08.420Z,23.78
2022-08-22T19:14:10.299Z,23.67
2022-08-22T19:21:47.815Z,23.36
2022-08-22T19:27:23.743Z,23.09
2022-08-22T19:33:07.853Z,23.02
2022-08-22T19:38:09.942Z,22.97
2022-08-22T19:43:27.149Z,22.86
2022-08-22T19:48:32.824Z,22.68
2022-08-22T19:54:16.677Z,22.74
2022-08-22T19:59:36.561Z,22.55
2022-08-22T20:08:02.233Z,22.37
2022-08-22T20:13:11.274Z,22.25
2022-08-22T20:18:47.426Z,22.32
2022-08-22T20:23:49.106Z,22.24
2022-08-22T20:28:51.618Z,22.13
2022-08-22T20:33:58.047Z,22.07
2022-08-22T20:39:21.418Z,21.98
2022-08-22T20:44:29.928Z,21.85
2022-08-22T20:49:41.336Z,21.64
2022-08-22T20:55:06.835Z,21.57
2022-08-22T21:00:12.639Z,21.42
2022-08-22T21:05:21.593Z,21.25
2022-08-22T21:10:45.830Z,21.07
2022-08-22T21:15:53.763Z,20.95
2022-08-22T21:21:04.356Z,20.95
2022-08-22T21:26:34.445Z,20.84
2022-08-22T21:31:53.964Z,20.66
2022-08-22T21:37:08.750Z,20.51
2022-08-22T21:42:21.023Z,20.35
2022-08-22T21:47:32.781Z,20.30
2022-08-22T21:52:37.309Z,20.36
2022-08-22T21:57:38.230Z,20.24
2022-08-22T22:02:40.941Z,20.06
2022-08-22T22:07:42.888Z,20.19
2022-08-22T22:12:47.035Z,20.08
2022-08-22T22:17:48.730Z,19.98
2022-08-22T22:22:49.722Z,19.74
2022-08-22T22:27:50.824Z,19.77
2022-08-22T22:32:51.734Z,19.81
2022-08-22T22:37:55.838Z,19.78
2022-08-22T22:42:56.963Z,19.76
2022-08-22T22:47:58.126Z,19.75
2022-08-22T22:52:59.188Z,19.75
2022-08-22T22:58:00.468Z,19.75
2022-08-22T23:03:04.108Z,20.17
2022-08-22T23:08:05.029Z,20.43
2022-08-22T23:13:05.967Z,20.57
2022-08-22T23:18:07.079Z,20.66
2022-08-22T23:23:07.910Z,20.38
2022-08-22T23:28:08.839Z,20.04
2022-08-22T23:33:09.673Z,19.73
2022-08-22T23:38:10.562Z,19.47
2022-08-22T23:43:12.137Z,19.33
2022-08-22T23:48:13.029Z,19.34
2022-08-22T23:53:14.046Z,19.12
2022-08-22T23:58:15.262Z,19.14
